Time;durP1;ratioP1;P1;durP2;ratioP2;P2;SDS_P1;SDS_P2;PMS_P1;PMS_P2;Temp;Humidity;BMP_temperature;BMP_pressure;BME280_temperature;BME280_humidity;BME280_pressure;Samples;Min_cycle;Max_cycle;Signal;HPM_P1;HPM_P2
2022/03/24 15:26:41;;;;;;;14.68;9.05;;;;;;;18.88;21.38;99841.09;5138600;27;20352;-82
2022/03/24 15:29:10;;;;;;;17.95;9.73;;;;;;;18.75;21.68;99833.72;5091973;28;20044;-85
2022/03/24 15:31:46;;;;;;;15.07;10.25;;;;;;;18.82;21.10;99838.34;5091331;28;20135;-83
2022/03/24 15:34:15;;;;;;;14.77;9.30;;;;;;;18.68;20.75;99838.47;5092857;28;20475;-84
2022/03/24 15:36:41;;;;;;;18.65;10.10;;;;;;;18.83;20.21;99831.78;5087193;28;20070;-83
2022/03/24 15:39:08;;;;;;;12.43;8.70;;;;;;;18.84;20.44;99823.28;5087745;28;20048;-83
2022/03/24 15:41:35;;;;;;;15.43;9.43;;;;;;;18.93;20.70;99816.47;5088273;28;20056;-82
2022/03/24 15:44:03;;;;;;;13.82;9.50;;;;;;;18.84;20.37;99828.81;5078738;28;20076;-83
2022/03/24 15:46:30;;;;;;;13.85;8.60;;;;;;;18.71;20.73;99824.25;5070588;28;20048;-83
2022/03/24 15:48:57;;;;;;;19.02;8.88;;;;;;;18.85;20.13;99832.44;5085151;28;20052;-83
2022/03/24 15:51:24;;;;;;;12.60;9.02;;;;;;;18.97;20.07;99827.91;5087414;28;20054;-84
2022/03/24 15:53:51;;;;;;;14.98;8.80;;;;;;;18.58;20.30;99819.66;5083106;28;20052;-83
2022/03/24 15:56:17;;;;;;;14.90;8.65;;;;;;;18.79;19.98;99827.78;5085502;28;20459;-84
2022/03/24 15:58:44;;;;;;;15.15;8.43;;;;;;;18.60;20.46;99813.94;5085593;28;20040;-84
2022/03/24 16:01:15;;;;;;;17.17;8.30;;;;;;;18.59;20.19;99812.22;5085075;28;20127;-83
2022/03/24 16:03:42;;;;;;;15.90;8.80;;;;;;;18.59;20.20;99809.47;5075571;28;20075;-83
2022/03/24 16:06:09;;;;;;;17.02;9.02;;;;;;;18.59;20.08;99820.50;5077599;28;20042;-83
2022/03/24 16:08:35;;;;;;;13.73;8.35;;;;;;;18.54;19.95;99832.16;5085387;28;20048;-84
2022/03/24 16:11:03;;;;;;;13.00;8.25;;;;;;;18.27;21.42;99814.97;5085716;28;20048;-83
2022/03/24 16:13:30;;;;;;;16.50;8.63;;;;;;;18.22;20.78;99817.53;5084663;28;20139;-84
2022/03/24 16:15:56;;;;;;;13.07;8.35;;;;;;;18.01;20.52;99814.03;5085216;28;20101;-84
2022/03/24 16:18:25;;;;;;;16.67;8.10;;;;;;;17.83;20.92;99816.59;5083756;28;20045;-83
2022/03/24 16:20:51;;;;;;;13.45;7.97;;;;;;;17.73;21.52;99825.28;5084802;28;20052;-84
2022/03/24 16:23:18;;;;;;;12.15;7.53;;;;;;;17.68;21.59;99836.94;5085024;28;20079;-84
2022/03/24 16:25:45;;;;;;;12.63;6.80;;;;;;;17.54;21.86;99828.94;5105927;28;20044;-84
2022/03/24 16:28:11;;;;;;;10.52;7.28;;;;;;;17.43;22.04;99819.44;5105947;28;20044;-84
2022/03/24 16:30:38;;;;;;;11.93;8.05;;;;;;;17.26;22.54;99833.63;5105846;28;20052;-84
2022/03/24 16:33:05;;;;;;;16.63;8.30;;;;;;;17.24;22.13;99827.50;5104224;28;20040;-84
2022/03/24 16:35:33;;;;;;;15.40;7.40;;;;;;;17.05;22.30;99809.97;5105676;28;20052;-83
2022/03/24 16:38:02;;;;;;;13.05;8.07;;;;;;;17.13;22.16;99826.25;5089587;28;20051;-85
2022/03/24 16:40:29;;;;;;;14.73;7.95;;;;;;;16.94;22.64;99813.34;5091909;28;20059;-84
2022/03/24 16:42:56;;;;;;;13.10;8.32;;;;;;;16.86;22.72;99832.75;5091015;28;20486;-84
2022/03/24 16:45:23;;;;;;;10.63;7.35;;;;;;;16.79;22.57;99819.84;5091634;28;20071;-85
2022/03/24 16:47:49;;;;;;;11.27;7.53;;;;;;;16.92;22.37;99838.28;5091219;28;20063;-84
2022/03/24 16:50:20;;;;;;;15.30;8.38;;;;;;;16.71;22.76;99831.06;5091932;28;20078;-84
2022/03/24 16:52:50;;;;;;;12.00;7.22;;;;;;;16.55;23.17;99829.53;5089646;28;20050;-84
2022/03/24 16:55:17;;;;;;;12.00;7.72;;;;;;;16.56;23.51;99839.47;5091919;28;20075;-84
2022/03/24 16:57:44;;;;;;;11.02;7.85;;;;;;;16.45;23.39;99835.44;5092189;28;20489;-84
2022/03/24 17:00:13;;;;;;;14.18;7.95;;;;;;;16.46;23.86;99841.75;5091672;28;20048;-84
2022/03/24 17:02:39;;;;;;;17.05;8.13;;;;;;;16.24;24.20;99841.03;5091373;28;20472;-84
2022/03/24 17:05:07;;;;;;;15.35;7.22;;;;;;;16.23;24.25;99847.59;5090415;28;20089;-84
2022/03/24 17:07:35;;;;;;;12.50;7.82;;;;;;;16.14;24.24;99848.81;5091979;28;20411;-84
2022/03/24 17:10:06;;;;;;;12.25;7.85;;;;;;;16.14;24.45;99854.28;5089875;28;20511;-84
2022/03/24 17:12:32;;;;;;;17.58;7.80;;;;;;;16.01;24.56;99842.22;5090880;28;20052;-83
2022/03/24 17:15:03;;;;;;;13.20;7.30;;;;;;;15.94;24.59;99852.31;5083512;28;20049;-84
2022/03/24 17:17:30;;;;;;;17.02;8.27;;;;;;;15.65;26.02;99845.16;5091438;28;20097;-84
2022/03/24 17:19:57;;;;;;;14.60;8.23;;;;;;;15.39;25.76;99836.56;5091206;28;20040;-83
2022/03/24 17:22:24;;;;;;;10.75;6.82;;;;;;;15.20;26.81;99845.47;5090489;28;20866;-83
2022/03/24 17:24:51;;;;;;;11.52;7.70;;;;;;;14.89;28.03;99837.63;5090521;28;20144;-83
2022/03/24 17:27:19;;;;;;;14.80;7.90;;;;;;;14.57;28.22;99839.81;5091157;28;20044;-84
2022/03/24 17:29:46;;;;;;;10.27;6.97;;;;;;;14.39;29.56;99840.25;5091293;28;20131;-83
2022/03/24 17:32:13;;;;;;;11.85;7.45;;;;;;;14.19;29.64;99857.28;5082653;28;20044;-83
2022/03/24 17:34:40;;;;;;;10.05;6.15;;;;;;;13.93;29.92;99834.03;5087010;28;20059;-83
2022/03/24 17:37:07;;;;;;;12.98;7.32;;;;;;;13.77;30.50;99837.78;5070616;28;20202;-83
2022/03/24 17:39:34;;;;;;;10.65;6.85;;;;;;;13.57;30.65;99837.53;5079778;28;20146;-83
2022/03/24 17:42:01;;;;;;;12.95;6.40;;;;;;;13.52;30.79;99839.13;5091257;28;20048;-84
2022/03/24 17:44:31;;;;;;;14.60;6.78;;;;;;;13.33;31.17;99838.59;5091350;28;20564;-84
2022/03/24 17:46:58;;;;;;;12.50;7.30;;;;;;;13.31;31.13;99854.34;5090907;28;20530;-84
2022/03/24 17:49:25;;;;;;;10.98;6.90;;;;;;;13.12;31.50;99839.31;5081716;28;20105;-84
2022/03/24 17:51:51;;;;;;;11.45;6.97;;;;;;;13.16;31.28;99859.78;5090469;28;20131;-84
2022/03/24 17:54:18;;;;;;;11.38;6.45;;;;;;;13.08;31.29;99857.97;5091449;28;20451;-84
2022/03/24 17:56:45;;;;;;;12.27;6.78;;;;;;;12.96;31.76;99870.34;5090862;28;20052;-84
2022/03/24 17:59:11;;;;;;;15.02;6.32;;;;;;;12.79;32.01;99864.16;5090317;28;20052;-84
2022/03/24 18:01:40;;;;;;;14.00;7.13;;;;;;;12.62;32.28;99865.34;5089945;28;20143;-83
2022/03/24 18:04:07;;;;;;;14.60;8.73;;;;;;;12.50;32.65;99863.00;5087892;28;20047;-84
2022/03/24 18:06:34;;;;;;;11.48;7.63;;;;;;;12.32;33.25;99865.16;5087512;28;20499;-84
2022/03/24 18:09:03;;;;;;;16.52;11.05;;;;;;;12.16;34.57;99886.03;5089485;28;20086;-84
2022/03/24 18:11:30;;;;;;;13.07;8.40;;;;;;;11.89;36.08;99861.94;5090549;28;20064;-84
2022/03/24 18:13:58;;;;;;;11.25;7.82;;;;;;;11.72;37.38;99862.00;5089503;28;20079;-83
2022/03/24 18:16:27;;;;;;;13.55;7.10;;;;;;;11.76;37.27;99881.56;5089190;28;20083;-84
2022/03/24 18:18:55;;;;;;;13.02;7.72;;;;;;;11.67;37.02;99883.47;5089734;28;20052;-84
2022/03/24 18:21:22;;;;;;;12.48;6.45;;;;;;;11.44;37.82;99875.16;5090135;28;20101;-84
2022/03/24 18:23:51;;;;;;;15.05;8.15;;;;;;;11.30;38.65;99871.28;5084121;28;20063;-84
2022/03/24 18:26:18;;;;;;;13.45;7.60;;;;;;;11.14;39.93;99877.56;5089478;28;20144;-84
2022/03/24 18:28:45;;;;;;;22.98;8.23;;;;;;;11.02;39.53;99904.31;5089975;28;20101;-84
2022/03/24 18:31:12;;;;;;;17.17;8.23;;;;;;;11.05;39.28;99898.53;5089512;28;20108;-84
2022/03/24 18:33:39;;;;;;;23.33;10.45;;;;;;;11.03;39.45;99906.00;5088702;28;20453;-84
2022/03/24 18:36:07;;;;;;;19.15;9.30;;;;;;;10.90;40.61;99889.31;5089705;28;20048;-84
2022/03/24 18:38:34;;;;;;;14.52;8.48;;;;;;;10.87;41.16;99908.69;5087855;28;20210;-83
2022/03/24 18:41:01;;;;;;;12.27;8.02;;;;;;;10.50;42.70;99883.66;5089326;28;20048;-84
2022/03/24 18:43:28;;;;;;;17.48;8.85;;;;;;;10.51;42.16;99907.13;5089395;28;20109;-84
2022/03/24 18:45:55;;;;;;;16.90;8.63;;;;;;;10.32;42.41;99888.34;5088190;28;20478;-84
2022/03/24 18:48:23;;;;;;;16.45;8.32;;;;;;;10.19;43.52;99884.25;5088709;28;20434;-84
2022/03/24 18:50:50;;;;;;;15.57;8.35;;;;;;;10.07;44.21;99886.41;5089813;28;20056;-84
2022/03/24 18:53:21;;;;;;;15.40;6.85;;;;;;;9.89;44.79;99889.22;5089495;28;20044;-84
2022/03/24 18:55:48;;;;;;;26.15;9.00;;;;;;;9.91;44.86;99913.50;5091500;28;20036;-82
2022/03/24 18:58:14;;;;;;;16.60;10.18;;;;;;;9.68;45.70;99894.19;5090897;28;20107;-82
2022/03/24 19:00:41;;;;;;;26.48;10.70;;;;;;;9.67;46.02;99906.91;5090401;28;20058;-82
2022/03/24 19:03:08;;;;;;;16.50;9.15;;;;;;;9.57;46.48;99898.03;5088359;28;20119;-82
2022/03/24 19:05:35;;;;;;;17.63;9.13;;;;;;;9.41;46.42;99893.38;5091515;28;20079;-82
2022/03/24 19:08:02;;;;;;;19.75;8.43;;;;;;;9.33;46.84;99896.00;5090082;28;20055;-82
2022/03/24 19:10:30;;;;;;;13.65;7.80;;;;;;;9.24;46.97;99894.25;5090617;28;20394;-81
2022/03/24 19:12:57;;;;;;;17.52;7.85;;;;;;;9.26;48.31;99908.50;5087693;28;20411;-82
